Nyk Arcadia — 3EXI5 — position and weather

sailwx.info

Track history (hours):
 
Tides and Currents Weather Stations Pressure Air Temp Water Temp Dewpoint Dewpoint Depression Visibility Wind Speed Wind Dir Waves Ship Positions

Nyk Arcadia

Last reported at 2017-Sep-22 01:20 UTC. Time now 2017-Sep-22 11:56 UTC.
Position N 01°15' E 103°46'.

Length 332 m; draft 13.7 m.

Type: Other ship. MMSI: 353523986.

Date/timePositionNaut miles runAvg speedWind from/ knotsBaromVisibWave heightAir tempDewpointWater temp
2017-Sep-22 01:20N 01°15' E 103°46'1 2.9
2017-Sep-22 00:58N 01°15' E 103°46'1 2.4
2017-Sep-22 00:31N 01°16' E 103°45'16 1.9
2017-Sep-21 16:11N 01°15' E 104°01'317.5
2017-Sep-21 16:00N 01°14' E 103°58'815.1
2017-Sep-21 15:30N 01°11' E 103°51'4 7.1
2017-Sep-21 15:00N 01°13' E 103°48'5 9.5
2017-Sep-21 14:30N 01°17' E 103°45'1 2.3
2017-Sep-21 14:00N 01°17' E 103°46'0 0.0
2017-Sep-21 13:28N 01°17' E 103°46'0 0.0
2017-Sep-21 12:58N 01°17' E 103°46'0 0.0
2017-Sep-21 12:28N 01°17' E 103°46'0 0.0
2017-Sep-21 11:58N 01°17' E 103°46'0 0.0
2017-Sep-21 11:28N 01°17' E 103°46'0 0.0
2017-Sep-21 10:58N 01°17' E 103°46'0 0.0
2017-Sep-21 10:28N 01°17' E 103°46'0 0.0
2017-Sep-21 09:55N 01°17' E 103°46'0 0.0
2017-Sep-21 09:28N 01°17' E 103°46'0 0.0
2017-Sep-21 08:58N 01°17' E 103°46'0 0.0
2017-Sep-21 08:25N 01°17' E 103°46'0 0.0
2017-Sep-21 07:58N 01°17' E 103°46'0 0.0
2017-Sep-21 07:28N 01°17' E 103°46'0 0.0
2017-Sep-21 06:58N 01°17' E 103°46'0 0.0
2017-Sep-21 06:28N 01°17' E 103°46'0 0.0
2017-Sep-21 05:58N 01°17' E 103°46'0 0.0
2017-Sep-21 05:28N 01°17' E 103°46'0 0.0
2017-Sep-21 04:58N 01°17' E 103°46'0 0.0
2017-Sep-21 04:28N 01°17' E 103°46'0 0.0
2017-Sep-21 03:58N 01°17' E 103°46'0 0.0
2017-Sep-21 03:28N 01°17' E 103°46'0 0.0
2017-Sep-21 02:58N 01°17' E 103°46'0 0.0
2017-Sep-21 02:28N 01°17' E 103°46'0 0.0
2017-Sep-21 01:58N 01°17' E 103°46'0 0.0
2017-Sep-21 01:28N 01°17' E 103°46'0 0.0
2017-Sep-21 00:58N 01°17' E 103°46'0 0.0
2017-Sep-21 00:28N 01°17' E 103°46'0 0.0
2017-Sep-20 23:58N 01°17' E 103°46'0 0.0
2017-Sep-20 23:28N 01°17' E 103°46'0 0.0
2017-Sep-20 22:58N 01°17' E 103°46'1017.4
2017-Sep-20 22:23N 01°12' E 103°37'1023.1
2017-Sep-20 21:58N 01°17' E 103°46'0 0.0
2017-Sep-20 21:28N 01°17' E 103°46'0 0.0
2017-Sep-20 20:58N 01°17' E 103°46'0 0.0
2017-Sep-20 20:28N 01°17' E 103°46'0 0.0
2017-Sep-20 19:58N 01°17' E 103°46'0 0.0
2017-Sep-20 19:28N 01°17' E 103°46'0 0.0
2017-Sep-20 18:58N 01°17' E 103°46'0 0.0
2017-Sep-20 18:28N 01°17' E 103°46'0 0.0
2017-Sep-20 17:58N 01°17' E 103°46'0 0.0
2017-Sep-20 17:28N 01°17' E 103°46'0 0.0
2017-Sep-20 16:58N 01°17' E 103°46'0 0.0
2017-Sep-20 16:28N 01°17' E 103°46'0 0.0
2017-Sep-20 15:58N 01°17' E 103°46'0 0.0
2017-Sep-20 15:25N 01°17' E 103°46'0 0.0
2017-Sep-20 14:58N 01°17' E 103°46'0 0.3
2017-Sep-20 14:00N 01°17' E 103°46'1 1.9
2017-Sep-20 13:30N 01°16' E 103°45'2 3.9
2017-Sep-20 13:00N 01°15' E 103°44'3 6.2
2017-Sep-20 12:30N 01°13' E 103°42'4 8.6
2017-Sep-20 12:01N 01°12' E 103°37'4 8.6
2017-Sep-20 11:30N 01°13' E 103°33'5 9.0
2017-Sep-20 11:00N 01°11' E 103°29'713.6
2017-Sep-20 10:31N 01°14' E 103°22'816.1
2017-Sep-20 10:00N 01°19' E 103°16'  
Track history (hours):
 
Tides and Currents Weather Stations Pressure Air Temp Water Temp Dewpoint Dewpoint Depression Visibility Wind Speed Wind Dir Waves Ship Positions

Nyk Arcadia

Last reported at 2017-Sep-22 01:20 UTC. Time now 2017-Sep-22 11:56 UTC.
Position N 01°15' E 103°46'.

Length 332 m; draft 13.7 m.

Type: Other ship. MMSI: 353523986.

Date/timePositionNaut miles runAvg speedWind from/ knotsBaromVisibWave heightAir tempDewpointWater temp
2017-Sep-22 01:20N 01°15' E 103°46'1 2.9
2017-Sep-22 00:58N 01°15' E 103°46'1 2.4
2017-Sep-22 00:31N 01°16' E 103°45'16 1.9
2017-Sep-21 16:11N 01°15' E 104°01'317.5
2017-Sep-21 16:00N 01°14' E 103°58'815.1
2017-Sep-21 15:30N 01°11' E 103°51'4 7.1
2017-Sep-21 15:00N 01°13' E 103°48'5 9.5
2017-Sep-21 14:30N 01°17' E 103°45'1 2.3
2017-Sep-21 14:00N 01°17' E 103°46'0 0.0
2017-Sep-21 13:28N 01°17' E 103°46'0 0.0
2017-Sep-21 12:58N 01°17' E 103°46'0 0.0
2017-Sep-21 12:28N 01°17' E 103°46'0 0.0
2017-Sep-21 11:58N 01°17' E 103°46'0 0.0
2017-Sep-21 11:28N 01°17' E 103°46'0 0.0
2017-Sep-21 10:58N 01°17' E 103°46'0 0.0
2017-Sep-21 10:28N 01°17' E 103°46'0 0.0
2017-Sep-21 09:55N 01°17' E 103°46'0 0.0
2017-Sep-21 09:28N 01°17' E 103°46'0 0.0
2017-Sep-21 08:58N 01°17' E 103°46'0 0.0
2017-Sep-21 08:25N 01°17' E 103°46'0 0.0
2017-Sep-21 07:58N 01°17' E 103°46'0 0.0
2017-Sep-21 07:28N 01°17' E 103°46'0 0.0
2017-Sep-21 06:58N 01°17' E 103°46'0 0.0
2017-Sep-21 06:28N 01°17' E 103°46'0 0.0
2017-Sep-21 05:58N 01°17' E 103°46'0 0.0
2017-Sep-21 05:28N 01°17' E 103°46'0 0.0
2017-Sep-21 04:58N 01°17' E 103°46'0 0.0
2017-Sep-21 04:28N 01°17' E 103°46'0 0.0
2017-Sep-21 03:58N 01°17' E 103°46'0 0.0
2017-Sep-21 03:28N 01°17' E 103°46'0 0.0
2017-Sep-21 02:58N 01°17' E 103°46'0 0.0
2017-Sep-21 02:28N 01°17' E 103°46'0 0.0
2017-Sep-21 01:58N 01°17' E 103°46'0 0.0
2017-Sep-21 01:28N 01°17' E 103°46'0 0.0
2017-Sep-21 00:58N 01°17' E 103°46'0 0.0
2017-Sep-21 00:28N 01°17' E 103°46'0 0.0
2017-Sep-20 23:58N 01°17' E 103°46'0 0.0
2017-Sep-20 23:28N 01°17' E 103°46'0 0.0
2017-Sep-20 22:58N 01°17' E 103°46'1017.4
2017-Sep-20 22:23N 01°12' E 103°37'1023.1
2017-Sep-20 21:58N 01°17' E 103°46'0 0.0
2017-Sep-20 21:28N 01°17' E 103°46'0 0.0
2017-Sep-20 20:58N 01°17' E 103°46'0 0.0
2017-Sep-20 20:28N 01°17' E 103°46'0 0.0
2017-Sep-20 19:58N 01°17' E 103°46'0 0.0
2017-Sep-20 19:28N 01°17' E 103°46'0 0.0
2017-Sep-20 18:58N 01°17' E 103°46'0 0.0
2017-Sep-20 18:28N 01°17' E 103°46'0 0.0
2017-Sep-20 17:58N 01°17' E 103°46'0 0.0
2017-Sep-20 17:28N 01°17' E 103°46'0 0.0
2017-Sep-20 16:58N 01°17' E 103°46'0 0.0
2017-Sep-20 16:28N 01°17' E 103°46'0 0.0
2017-Sep-20 15:58N 01°17' E 103°46'0 0.0
2017-Sep-20 15:25N 01°17' E 103°46'0 0.0
2017-Sep-20 14:58N 01°17' E 103°46'0 0.3
2017-Sep-20 14:00N 01°17' E 103°46'1 1.9
2017-Sep-20 13:30N 01°16' E 103°45'2 3.9
2017-Sep-20 13:00N 01°15' E 103°44'3 6.2
2017-Sep-20 12:30N 01°13' E 103°42'4 8.6
2017-Sep-20 12:01N 01°12' E 103°37'4 8.6
2017-Sep-20 11:30N 01°13' E 103°33'5 9.0
2017-Sep-20 11:00N 01°11' E 103°29'713.6
2017-Sep-20 10:31N 01°14' E 103°22'816.1
2017-Sep-20 10:00N 01°19' E 103°16'  

Dump ship's entire track history